Logo AVAMET
Benvolgut visitant, si us plau, ingressa Recuperar contrasenya

Xàbia Montgó/Toscamar

Dades diàries. Acumulats / Últims 30 dies disponibles

Data Temperatura (°C) Humitat rel. (%) Pressió rel. (hPa) Vent (km/h) Precipitació
Mínima Mitjana Màxima Amplitud
tèrmica
Mínima Mitjana Màxima Mínima Mitjana Màxima Predom. Mitjana Ràfega
màxima
Total
(mm)
Índex-n
Mínima Mitjana Màxima Mínima Mitjana Màxima n
0 a 1
P0 max
mm 5'
Dades mensuals acumulades fins l'últim dia disponible
05/2019 10,9 14,5 20,4 18,4 18,3 22,6 28,6 17,7 21 66 94 1.002 1.014 1.025   5,2 56,3 3,6
Dades anuals acumulades fins l'últim dia disponible
2019 4,1 10,7 20,4 14,4 11,3 18,4 28,6 24,5 21 63 97 994 1.018 1.036   5,6 90,1 421,8
Últims 30 dies disponibles
24-05-2019 14,9     17,9     22,3 7,4 28 70 86 1.012 1.014 1.015 E 5,1 33,8 1,4 0,20
23-05-2019 17,7     22,2     27,9 10,2 21 39 60 1.014 1.016 1.018 E 5,0 25,7 0,0
22-05-2019 13,4     19,0     23,5 10,1 44 69 89 1.017 1.018 1.019 E 3,2 24,1 0,0
21-05-2019 15,1     17,8     21,8 6,7 65 80 91 1.013 1.015 1.017 E 2,9 29,0 0,2
20-05-2019 13,3     17,6     21,3 8,0 44 63 77 1.011 1.013 1.014 E 4,0 22,5 0,0
19-05-2019 12,4     17,1     21,3 8,9 52 69 88 1.010 1.010 1.012 E 3,2 27,4 0,0
18-05-2019 14,8     16,8     19,3 4,5 44 61 77 1.008 1.009 1.010 E 2,9 27,4 0,4
17-05-2019 15,2     18,9     23,7 8,5 31 54 82 1.002 1.005 1.010 E 11,5 56,3 0,0
16-05-2019 14,4     17,7     20,8 6,4 57 74 84 1.006 1.011 1.015 E 6,6 37,0 0,0
15-05-2019 13,4     18,7     25,0 11,6 52 68 84 1.010 1.012 1.015 E 4,8 49,9 0,0
14-05-2019 12,1     17,9     23,2 11,1 31 62 87 1.014 1.018 1.021 E 3,5 27,4 0,0
13-05-2019 15,2     18,2     22,7 7,5 54 72 86 1.018 1.020 1.021 E 4,5 25,7 0,0
12-05-2019 14,8     18,4     22,4 7,6 55 74 90 1.019 1.022 1.025 E 2,7 24,1 0,0
11-05-2019 17,4     22,2     25,2 7,8 43 57 75 1.014 1.017 1.023 E 8,0 45,1 0,0
10-05-2019 20,4     24,7     28,6 8,2 41 52 65 1.012 1.013 1.014 E 5,8 29,0 0,0
09-05-2019 20,4     23,1     27,0 6,6 44 54 62 1.011 1.012 1.014 E 6,8 40,2 0,0
08-05-2019 13,8     21,2     27,5 13,7 42 67 94 1.009 1.012 1.015 E 4,3 35,4 0,0
07-05-2019 15,1     18,1     21,8 6,7 68 79 89 1.014 1.017 1.019 E 3,5 22,5 0,0
06-05-2019 12,3     15,8     20,2 7,9 64 79 90 1.017 1.018 1.020 E 4,5 27,4 0,0
05-05-2019 13,6     15,7     18,3 4,7 40 66 83 1.012 1.015 1.017 E 7,2 37,0 0,0
04-05-2019 11,1     15,2     19,0 7,9 45 67 80 1.012 1.013 1.014 E 6,6 33,8 0,0
03-05-2019 10,9     14,6     19,4 8,5 49 78 90 1.010 1.012 1.015 E 6,3 38,6 1,6
02-05-2019 13,0     16,0     19,5 6,5 54 73 87 1.014 1.015 1.016 E 6,3 33,8 0,0
01-05-2019 13,9     16,5     20,4 6,5 35 70 87 1.013 1.015 1.017 E 4,5 27,4 0,0
30-04-2019 13,2     16,1     19,4 6,2 58 77 89 1.016 1.017 1.019 E 3,6 30,6 0,0
29-04-2019 12,6     15,4     18,5 5,9 53 76 86 1.018 1.019 1.021 E 3,5 25,7 0,0
28-04-2019 12,2     17,2     22,3 10,1 36 60 83 1.019 1.022 1.025 E 2,6 20,9 0,0
27-04-2019 13,4     17,6     21,4 8,0 39 53 78 1.024 1.025 1.027 E 5,8 30,6 0,0
26-04-2019 12,5     16,6     20,8 8,3 34 50 65 1.018 1.022 1.025 E 7,1 35,4 0,0
25-04-2019 13,7     17,1     19,9 6,2 47 66 86 1.010 1.012 1.018 E 6,6 38,6 0,0
Últims 13 mesos disponibles
04/2019 8,6 11,9 13,9 15,1 13,4 18,9 26,9 18,3 35 68 94 1.000 1.013 1.025 E 6,4 78,9 358,6
03/2019 7,3 10,6 15,9 14,6 13,5 18,8 26,7 19,4 33 60 88 1.010 1.023 1.030 E 5,1 57,9 52,6
02/2019 6,1 8,8 12,1 12,6 11,5 16,9 22,8 16,7 35 63 82 996 1.025 1.034 E 5,4 90,1 0,2
01/2019 4,1 8,4 11,5 11,9 11,3 15,7 20,7 16,6 39 48 55 1.003 1.012 1.017 ENE 5,9 70,8 6,8
12/2018 7,6 10,2 14,2 13,9 12,2 18,0 22,9 15,3 40 68 88 1.009 1.025 1.031 ENE 3,1 75,6 27,4
11/2018 9,6 12,5 16,7 15,2 14,9 18,3 23,8 14,2 48 70 90 1.000 1.014 1.022 ENE 5,1 74,0 113,8
10/2018 8,3 15,7 19,2 18,9 13,6 22,5 27,4 19,1 43 71 88 1.000 1.014 1.025 5,1 56,3 121,8
09/2018 16,6 21,0 23,3 24,0 23,8 27,6 30,8 14,2 64 79 89 1.012 1.018 1.027 4,6 45,1 46,8
08/2018 19,4 23,2 26,5 26,9 24,1 30,9 36,4 17,0 43 70 87 1.012 1.016 1.020 5,0 56,3 119,4
07/2018 20,0 22,3 24,4 26,4 26,5 30,7 34,2 14,2 5,7 57,9 5,6
06/2018 14,8 19,0 22,1 23,1 22,3 27,3 31,6 16,8 5,3 54,7 35,0
05/2018 8,9 14,7 17,9 18,6 16,4 23,2 27,0 18,1 5,1 51,5 9,2
04/2018 8,4 12,8 16,4 16,1 13,4 19,7 24,5 16,1 7,8 59,5 14,8
Tots els anys disponibles
2018 2,9 15,0 26,5 18,5 7,0 22,3 36,4 33,5 40 72 90 1.000 1.018 1.031 ENE 5,5 77,2 695,2
2017 -0,2 14,8 26,4 18,4 7,8 22,3 35,7 35,9 5,0 95,0 844,2
2016 4,2 15,1 27,9 18,5 11,8 22,3 39,2 35,0 5,5 74,0 563,0
2015 4,9 16,5 26,0 20,1 11,8 24,1 40,6 35,7 4,9 82,1 513,4
2014
Temperatura (°C)
Humitat relativa (%)
Velocitat del vent i ràfega màxima (km/h)
Direcció del vent (°)
Pressió (hPa)
Precipitació (mm)
Nota sobre les dades: s'avisa a l'usuari de la provisionalitat i no oficialitat d'aquestes dades
Logo AVAMET blanc
Web allotjada a Sollutia
Llicència de Creative CommonsLa web d'AVAMET i els seus continguts estan subjectes a una llicència de
Reconeixement - No Comercial - Compartir igual
Properes estacions: Altea - Club Nàutic d'Altea (Soci), Ontinyent - El Pilar (Soci), Ares del Maestrat (Ajuntament Soci), Catadau - L'Altet (Inforatge)     - - - - -      Últimes estacions: Asp - Poliesportiu (Soci), Jacarilla - centro (MeteOrihuela), Elx - Maitino/Vallverda/Velarde/Matola/Ferriol (Soci TiempoElche.com), Orihuela - Playa Flamenca (MeteOrihuela), - - -